Time;durP1;ratioP1;P1;durP2;ratioP2;P2;SDS_P1;SDS_P2;PMS_P1;PMS_P2;Temp;Humidity;BMP_temperature;BMP_pressure;BME280_temperature;BME280_humidity;BME280_pressure;Samples;Min_cycle;Max_cycle;Signal;HPM_P1;HPM_P2
2023/05/18 00:01:13;;;;;;;13.38;3.60;;;;;;;7.25;100.00;102347.81;5027094;28;20050;-74
2023/05/18 00:03:40;;;;;;;14.45;3.47;;;;;;;7.23;100.00;102339.06;5021186;28;20551;-75
2023/05/18 00:06:08;;;;;;;13.23;3.55;;;;;;;7.24;100.00;102342.63;5023645;28;20144;-74
2023/05/18 00:08:36;;;;;;;12.40;3.88;;;;;;;7.22;100.00;102337.47;5019134;28;20401;-74
2023/05/18 00:11:09;;;;;;;19.35;3.20;;;;;;;7.19;100.00;102338.16;5028813;28;20053;-75
2023/05/18 00:13:36;;;;;;;14.45;3.90;;;;;;;7.17;100.00;102332.16;5022600;28;20072;-74
2023/05/18 00:16:02;;;;;;;13.70;3.80;;;;;;;7.12;100.00;102337.16;5029714;28;20046;-75
2023/05/18 00:18:29;;;;;;;12.90;3.30;;;;;;;7.08;100.00;102345.38;5017578;28;20045;-74
2023/05/18 00:21:05;;;;;;;13.00;3.35;;;;;;;7.04;100.00;102335.34;5026877;28;20050;-74
2023/05/18 00:23:31;;;;;;;12.35;3.42;;;;;;;7.02;100.00;102341.22;5016110;28;20053;-74
2023/05/18 00:25:59;;;;;;;14.25;3.20;;;;;;;6.99;100.00;102335.63;5023643;28;20140;-75
2023/05/18 00:28:27;;;;;;;12.30;3.50;;;;;;;6.97;100.00;102337.94;5026891;28;20413;-74
2023/05/18 00:30:54;;;;;;;15.32;3.05;;;;;;;6.98;100.00;102345.06;5027592;28;20076;-75
2023/05/18 00:33:21;;;;;;;14.73;3.15;;;;;;;6.90;100.00;102330.25;5026072;28;20075;-74
2023/05/18 00:35:47;;;;;;;11.77;3.08;;;;;;;6.91;100.00;102342.91;5029378;28;20504;-73
2023/05/18 00:38:14;;;;;;;14.35;3.28;;;;;;;6.89;100.00;102341.66;5024184;28;20057;-74
2023/05/18 00:40:41;;;;;;;15.88;3.90;;;;;;;6.84;100.00;102344.66;5025398;28;20050;-74
2023/05/18 00:43:08;;;;;;;10.52;3.35;;;;;;;6.84;100.00;102339.97;5015376;28;20493;-73
2023/05/18 00:45:35;;;;;;;11.38;3.50;;;;;;;6.82;100.00;102341.47;5026912;28;20049;-74
2023/05/18 00:48:02;;;;;;;15.10;3.28;;;;;;;6.80;100.00;102341.81;5025049;28;20041;-74
2023/05/18 00:50:29;;;;;;;11.88;3.25;;;;;;;6.77;100.00;102342.53;5020670;28;20737;-75
2023/05/18 00:52:55;;;;;;;11.65;3.22;;;;;;;6.79;100.00;102336.66;5022321;28;20849;-74
2023/05/18 00:55:27;;;;;;;12.85;3.53;;;;;;;6.74;100.00;102342.41;5016882;28;20124;-75
2023/05/18 00:57:55;;;;;;;12.35;3.40;;;;;;;6.75;100.00;102344.84;5018680;28;20046;-75
2023/05/18 01:00:23;;;;;;;10.95;3.58;;;;;;;6.71;100.00;102338.41;5010151;28;20054;-74
2023/05/18 01:02:53;;;;;;;11.73;3.35;;;;;;;6.64;100.00;102335.44;5027782;28;20077;-74
2023/05/18 01:05:21;;;;;;;10.43;3.38;;;;;;;6.62;100.00;102346.03;5027370;28;20049;-74
2023/05/18 01:07:49;;;;;;;12.55;3.63;;;;;;;6.65;100.00;102342.56;5018292;28;20405;-74
2023/05/18 01:10:18;;;;;;;10.63;3.35;;;;;;;6.63;100.00;102341.31;5024088;28;20088;-75
2023/05/18 01:12:52;;;;;;;15.45;4.15;;;;;;;6.60;100.00;102336.50;5027524;28;20436;-75
2023/05/18 01:15:31;;;;;;;9.07;3.30;;;;;;;6.53;100.00;102341.81;5021537;28;20088;-75
2023/05/18 01:18:22;;;;;;;16.30;4.15;;;;;;;6.55;100.00;102342.28;5026150;28;20412;-74
2023/05/18 01:20:58;;;;;;;16.63;3.92;;;;;;;6.50;100.00;102346.09;5022077;28;20115;-75
2023/05/18 01:23:59;;;;;;;17.90;4.38;;;;;;;6.41;100.00;102339.91;5016622;28;20058;-74
2023/05/18 01:26:28;;;;;;;16.65;3.78;;;;;;;6.41;100.00;102350.94;5023085;28;20085;-75
2023/05/18 01:28:58;;;;;;;13.57;3.35;;;;;;;6.41;100.00;102355.66;5025647;28;20587;-74
2023/05/18 01:31:26;;;;;;;17.42;5.00;;;;;;;6.32;100.00;102355.81;5028081;28;20745;-75
2023/05/18 01:33:54;;;;;;;17.10;4.88;;;;;;;6.30;100.00;102357.31;5021826;28;20053;-75
2023/05/18 01:36:20;;;;;;;12.95;3.55;;;;;;;6.26;100.00;102364.69;5024166;28;20075;-75
2023/05/18 01:38:49;;;;;;;14.88;4.72;;;;;;;6.23;100.00;102354.34;5020957;28;20069;-75
2023/05/18 01:41:27;;;;;;;22.10;5.60;;;;;;;6.19;100.00;102353.44;5023085;28;20053;-75
2023/05/18 01:44:47;;;;;;;20.33;5.28;;;;;;;6.17;100.00;102356.53;5020679;28;20045;-74
2023/05/18 01:47:16;;;;;;;17.67;4.00;;;;;;;6.19;100.00;102356.19;5014997;28;20053;-75
2023/05/18 01:49:58;;;;;;;16.58;4.53;;;;;;;6.14;100.00;102351.72;5025729;28;20081;-73
2023/05/18 01:52:57;;;;;;;16.55;4.30;;;;;;;6.10;100.00;102353.56;5020485;28;20140;-74
2023/05/18 01:55:28;;;;;;;17.08;4.15;;;;;;;6.11;100.00;102355.16;5019751;28;20081;-74
2023/05/18 01:57:57;;;;;;;12.52;3.75;;;;;;;6.07;100.00;102354.25;5022300;28;20053;-73
2023/05/18 02:00:24;;;;;;;10.77;3.85;;;;;;;6.06;100.00;102355.41;5026482;28;20140;-74
2023/05/18 02:02:50;;;;;;;15.57;3.90;;;;;;;6.05;100.00;102359.31;5023186;28;20053;-75
2023/05/18 02:05:17;;;;;;;16.83;4.10;;;;;;;6.03;100.00;102358.06;5025930;28;20045;-74
2023/05/18 02:07:46;;;;;;;17.42;3.92;;;;;;;6.06;100.00;102357.38;5020194;28;20118;-75
2023/05/18 02:10:13;;;;;;;12.73;3.58;;;;;;;6.05;100.00;102351.03;5019323;28;20054;-74
2023/05/18 02:12:39;;;;;;;12.00;4.22;;;;;;;5.97;100.00;102354.72;5023876;28;20136;-74
2023/05/18 02:15:06;;;;;;;11.95;3.70;;;;;;;5.95;100.00;102354.28;5027129;28;20123;-75
2023/05/18 02:17:37;;;;;;;14.52;4.10;;;;;;;5.92;100.00;102354.97;5027153;28;20128;-72
2023/05/18 02:20:08;;;;;;;17.88;4.93;;;;;;;5.89;100.00;102354.84;5026298;28;20495;-75
2023/05/18 02:22:35;;;;;;;12.68;3.85;;;;;;;5.81;100.00;102353.03;5025586;28;20063;-74
2023/05/18 02:25:03;;;;;;;13.48;4.00;;;;;;;5.77;100.00;102363.16;5027656;28;20041;-73
2023/05/18 02:27:31;;;;;;;13.40;4.28;;;;;;;5.74;100.00;102356.34;5027765;28;20057;-74
2023/05/18 02:29:58;;;;;;;12.27;3.72;;;;;;;5.73;100.00;102357.50;5019518;28;20504;-74
2023/05/18 02:32:24;;;;;;;21.92;4.72;;;;;;;5.74;100.00;102356.34;5027245;28;20049;-74
2023/05/18 02:34:51;;;;;;;13.43;3.75;;;;;;;5.74;100.00;102364.63;5021513;28;20046;-74
2023/05/18 02:37:18;;;;;;;14.02;3.95;;;;;;;5.71;100.00;102367.28;5020958;28;20053;-73
2023/05/18 02:39:45;;;;;;;14.88;4.28;;;;;;;5.70;100.00;102363.72;5025502;28;20076;-74
2023/05/18 02:42:12;;;;;;;11.73;4.13;;;;;;;5.71;100.00;102368.06;5026880;28;20152;-74
2023/05/18 02:44:40;;;;;;;15.85;4.35;;;;;;;5.64;100.00;102365.09;5026752;28;20045;-74
2023/05/18 02:47:07;;;;;;;19.70;4.05;;;;;;;5.60;100.00;102364.16;5027333;28;20095;-74
2023/05/18 02:49:33;;;;;;;10.10;4.00;;;;;;;5.59;100.00;102362.56;5026480;28;20471;-74
2023/05/18 02:52:00;;;;;;;16.33;3.90;;;;;;;5.60;100.00;102368.91;5024399;28;20719;-74
2023/05/18 02:54:26;;;;;;;16.58;4.00;;;;;;;5.58;100.00;102362.91;5027864;28;20073;-74
2023/05/18 02:56:55;;;;;;;19.88;4.40;;;;;;;5.53;100.00;102369.47;5026308;28;20083;-73
2023/05/18 02:59:22;;;;;;;12.90;3.95;;;;;;;5.51;100.00;102371.78;5030006;28;20054;-73
2023/05/18 03:01:49;;;;;;;11.45;4.00;;;;;;;5.50;100.00;102375.66;5022993;28;20199;-74
2023/05/18 03:04:16;;;;;;;13.10;4.35;;;;;;;5.47;100.00;102370.81;5030539;28;20050;-74
2023/05/18 03:06:45;;;;;;;14.75;3.90;;;;;;;5.44;100.00;102365.19;5031266;28;20460;-74
2023/05/18 03:09:12;;;;;;;13.40;4.22;;;;;;;5.42;100.00;102368.31;5027095;28;20053;-75
2023/05/18 03:11:38;;;;;;;18.20;4.38;;;;;;;5.41;100.00;102374.97;5031158;28;20053;-74
2023/05/18 03:14:05;;;;;;;14.50;3.97;;;;;;;5.39;100.00;102373.69;5029011;28;20132;-73
2023/05/18 03:16:32;;;;;;;13.50;4.32;;;;;;;5.32;100.00;102354.16;5027495;28;20064;-76
2023/05/18 03:19:00;;;;;;;14.68;4.25;;;;;;;5.37;100.00;102368.50;5019919;28;20050;-75
2023/05/18 03:21:32;;;;;;;13.32;4.40;;;;;;;5.34;100.00;102371.16;5029578;28;20057;-74
2023/05/18 03:23:59;;;;;;;18.48;5.07;;;;;;;5.27;100.00;102366.19;5020601;28;20132;-74
2023/05/18 03:26:29;;;;;;;14.82;4.63;;;;;;;5.25;100.00;102370.44;5029931;28;20100;-73
2023/05/18 03:28:57;;;;;;;15.35;4.20;;;;;;;5.20;100.00;102365.91;5029475;28;20057;-74
2023/05/18 03:31:24;;;;;;;14.55;4.65;;;;;;;5.26;100.00;102378.38;5020647;28;20504;-72
2023/05/18 03:33:50;;;;;;;15.52;4.63;;;;;;;5.23;100.00;102370.00;5024007;28;20056;-74
2023/05/18 03:36:17;;;;;;;17.25;5.95;;;;;;;5.21;100.00;102375.00;5028920;28;20100;-73
2023/05/18 03:38:46;;;;;;;18.90;5.22;;;;;;;5.19;100.00;102372.59;5023799;28;20132;-74
2023/05/18 03:41:13;;;;;;;18.05;4.88;;;;;;;5.19;100.00;102372.59;5029063;28;20172;-74
2023/05/18 03:43:39;;;;;;;15.82;4.82;;;;;;;5.20;100.00;102373.41;5029848;28;20103;-74
2023/05/18 03:46:06;;;;;;;18.20;5.45;;;;;;;5.21;100.00;102372.25;5029150;28;20144;-74
2023/05/18 03:48:32;;;;;;;13.50;4.63;;;;;;;5.22;100.00;102374.69;5029243;28;20139;-71
2023/05/18 03:50:59;;;;;;;14.98;4.90;;;;;;;5.20;100.00;102370.66;5018645;28;20077;-73
2023/05/18 03:53:26;;;;;;;18.45;5.22;;;;;;;5.19;100.00;102364.31;5029357;28;20139;-73
2023/05/18 03:55:52;;;;;;;18.08;4.90;;;;;;;5.18;100.00;102375.69;5029666;28;20077;-73
2023/05/18 03:58:19;;;;;;;17.17;5.53;;;;;;;5.16;100.00;102373.28;5027101;28;20417;-74
2023/05/18 04:00:46;;;;;;;12.40;4.80;;;;;;;5.15;100.00;102365.34;5030106;28;20083;-74
2023/05/18 04:03:13;;;;;;;16.27;5.05;;;;;;;5.16;100.00;102373.28;5029332;28;20053;-74
2023/05/18 04:05:44;;;;;;;21.90;5.55;;;;;;;5.18;100.00;102379.25;5030508;28;20037;-73
2023/05/18 04:08:13;;;;;;;16.33;5.78;;;;;;;5.18;100.00;102373.75;5029573;28;20064;-73
2023/05/18 04:10:43;;;;;;;16.85;5.60;;;;;;;5.19;100.00;102386.38;5030594;28;20046;-76
2023/05/18 04:13:10;;;;;;;19.30;6.05;;;;;;;5.18;100.00;102384.78;5026283;28;20049;-74
2023/05/18 04:15:37;;;;;;;19.08;6.22;;;;;;;5.19;100.00;102385.56;5017941;28;20050;-74
2023/05/18 04:18:04;;;;;;;21.50;6.38;;;;;;;5.20;100.00;102387.19;5030227;28;20128;-73
2023/05/18 04:20:30;;;;;;;17.60;5.82;;;;;;;5.23;100.00;102392.06;5029208;28;20053;-75
2023/05/18 04:22:57;;;;;;;20.40;5.68;;;;;;;5.20;100.00;102376.16;5028335;28;20144;-74
2023/05/18 04:25:26;;;;;;;16.67;5.35;;;;;;;5.29;100.00;102385.16;5029665;28;20099;-73
2023/05/18 04:27:55;;;;;;;17.00;5.50;;;;;;;5.30;100.00;102386.78;5029621;28;20060;-72
2023/05/18 04:30:22;;;;;;;17.33;5.32;;;;;;;5.35;100.00;102389.31;5028621;28;20059;-73
2023/05/18 04:32:49;;;;;;;19.85;7.13;;;;;;;5.35;100.00;102394.84;5027510;28;20107;-74
2023/05/18 04:35:17;;;;;;;26.23;7.78;;;;;;;5.35;100.00;102395.66;5029336;28;20577;-73
2023/05/18 04:37:44;;;;;;;23.27;6.35;;;;;;;5.36;100.00;102399.19;5028751;28;20119;-74
2023/05/18 04:40:16;;;;;;;20.73;6.55;;;;;;;5.38;100.00;102399.66;5029078;28;20506;-74
2023/05/18 04:42:46;;;;;;;17.15;5.38;;;;;;;5.39;100.00;102407.59;5020829;28;20056;-73
2023/05/18 04:45:15;;;;;;;20.20;6.57;;;;;;;5.44;100.00;102401.06;5027007;28;20576;-74
2023/05/18 04:47:46;;;;;;;13.73;5.30;;;;;;;5.47;100.00;102403.94;5029196;28;20057;-72
2023/05/18 04:50:16;;;;;;;16.23;5.18;;;;;;;5.51;100.00;102415.91;5029220;28;20055;-74
2023/05/18 04:52:47;;;;;;;21.27;6.20;;;;;;;5.50;100.00;102411.53;5028224;28;20088;-74
2023/05/18 04:55:24;;;;;;;22.05;7.32;;;;;;;5.57;100.00;102414.53;5029473;28;20140;-74
2023/05/18 04:57:55;;;;;;;22.52;6.05;;;;;;;5.58;100.00;102413.41;5028519;28;20782;-74
2023/05/18 05:00:23;;;;;;;19.95;6.20;;;;;;;5.61;100.00;102420.19;5025798;28;20054;-73
2023/05/18 05:02:50;;;;;;;19.48;5.05;;;;;;;5.64;100.00;102414.75;5027340;28;20084;-74
2023/05/18 05:05:17;;;;;;;21.48;5.70;;;;;;;5.71;100.00;102415.00;5028697;28;20045;-73
2023/05/18 05:07:44;;;;;;;20.00;5.90;;;;;;;5.77;100.00;102413.63;5029428;28;20053;-74
2023/05/18 05:10:11;;;;;;;21.38;5.88;;;;;;;5.78;100.00;102408.91;5028497;28;20053;-73
2023/05/18 05:12:38;;;;;;;14.85;5.07;;;;;;;5.89;100.00;102415.59;5028314;28;20049;-74
2023/05/18 05:15:05;;;;;;;16.23;5.68;;;;;;;5.91;100.00;102405.81;5028003;28;20041;-74
2023/05/18 05:17:31;;;;;;;22.30;6.63;;;;;;;5.97;100.00;102409.94;5026650;28;20088;-73
2023/05/18 05:19:58;;;;;;;18.23;5.60;;;;;;;6.01;100.00;102410.06;5029150;28;20045;-74
2023/05/18 05:22:25;;;;;;;16.58;6.20;;;;;;;6.06;100.00;102405.13;5028176;28;20115;-74
2023/05/18 05:24:51;;;;;;;21.38;6.40;;;;;;;6.14;100.00;102408.88;5028259;28;20137;-73
2023/05/18 05:27:18;;;;;;;22.17;6.50;;;;;;;6.18;100.00;102409.84;5027202;28;20064;-75
2023/05/18 05:29:45;;;;;;;17.95;5.75;;;;;;;6.23;100.00;102410.41;5028028;28;20041;-74
2023/05/18 05:32:12;;;;;;;14.20;6.13;;;;;;;6.30;100.00;102424.44;5025112;28;20060;-75
2023/05/18 05:34:39;;;;;;;20.42;6.07;;;;;;;6.34;100.00;102419.81;5024365;28;20045;-74
2023/05/18 05:37:06;;;;;;;18.92;6.40;;;;;;;6.38;100.00;102417.16;5027783;28;20065;-74
2023/05/18 05:39:32;;;;;;;19.58;5.05;;;;;;;6.42;100.00;102416.09;5028358;28;20120;-73
2023/05/18 05:41:59;;;;;;;15.57;5.38;;;;;;;6.50;100.00;102419.88;5028038;28;20460;-74
2023/05/18 05:44:26;;;;;;;17.27;4.93;;;;;;;6.56;100.00;102412.97;5027675;28;20164;-74
2023/05/18 05:46:52;;;;;;;16.45;5.00;;;;;;;6.64;100.00;102414.78;5026287;28;20098;-74
2023/05/18 05:49:19;;;;;;;16.05;5.07;;;;;;;6.72;100.00;102416.63;5027599;28;20049;-74
2023/05/18 05:51:45;;;;;;;25.25;5.55;;;;;;;6.80;100.00;102416.47;5027828;28;20049;-74
2023/05/18 05:54:12;;;;;;;13.30;4.60;;;;;;;6.82;100.00;102416.91;5023346;28;20144;-74
2023/05/18 05:56:39;;;;;;;22.67;5.75;;;;;;;6.92;100.00;102421.13;5026027;28;20076;-74
2023/05/18 05:59:06;;;;;;;12.07;4.90;;;;;;;6.94;100.00;102416.88;5027737;28;20373;-74
2023/05/18 06:01:33;;;;;;;16.52;5.20;;;;;;;6.94;100.00;102414.09;5024756;28;20448;-75
2023/05/18 06:04:01;;;;;;;17.00;5.13;;;;;;;7.03;100.00;102423.03;5025734;28;20493;-75
2023/05/18 06:06:28;;;;;;;11.18;4.32;;;;;;;7.03;100.00;102422.25;5026804;28;20078;-75
2023/05/18 06:08:54;;;;;;;16.90;4.45;;;;;;;7.07;100.00;102424.00;5023281;28;20052;-74
2023/05/18 06:11:21;;;;;;;12.48;4.40;;;;;;;7.14;100.00;102424.19;5019583;28;20084;-74
2023/05/18 06:13:48;;;;;;;13.15;4.10;;;;;;;7.17;100.00;102423.47;5027519;28;20076;-73
2023/05/18 06:16:14;;;;;;;16.70;4.60;;;;;;;7.23;100.00;102426.81;5025970;28;20041;-75
2023/05/18 06:18:41;;;;;;;16.88;4.32;;;;;;;7.30;100.00;102425.00;5028126;28;20132;-75
2023/05/18 06:21:08;;;;;;;9.38;2.63;;;;;;;7.32;100.00;102428.22;5026505;28;20057;-73
2023/05/18 06:23:35;;;;;;;17.83;5.75;;;;;;;7.38;100.00;102424.06;5026343;28;20397;-74
2023/05/18 06:26:01;;;;;;;18.92;4.65;;;;;;;7.46;100.00;102427.78;5025805;28;20363;-74
2023/05/18 06:28:28;;;;;;;14.68;5.13;;;;;;;7.50;100.00;102425.94;5027073;28;20096;-74
2023/05/18 06:30:54;;;;;;;17.23;4.57;;;;;;;7.57;100.00;102435.22;5027069;28;20073;-75
2023/05/18 06:33:25;;;;;;;17.77;4.78;;;;;;;7.61;100.00;102427.03;5025471;28;20053;-75
2023/05/18 06:35:52;;;;;;;15.90;4.43;;;;;;;7.64;100.00;102431.03;5025258;28;20048;-75
2023/05/18 06:38:18;;;;;;;16.60;4.93;;;;;;;7.70;100.00;102429.63;5027107;28;20111;-74
2023/05/18 06:40:45;;;;;;;20.02;5.97;;;;;;;7.72;100.00;102427.28;5023321;28;20042;-74
2023/05/18 06:43:11;;;;;;;19.98;4.57;;;;;;;7.77;100.00;102430.59;5017629;28;20608;-73
2023/05/18 06:45:38;;;;;;;17.42;4.57;;;;;;;7.85;100.00;102431.56;5026690;28;20088;-76
2023/05/18 06:48:05;;;;;;;18.05;4.90;;;;;;;7.88;100.00;102439.16;5023343;28;20076;-74
2023/05/18 06:50:31;;;;;;;10.63;4.18;;;;;;;7.93;100.00;102433.38;5023985;28;20198;-77
2023/05/18 06:52:58;;;;;;;16.13;4.90;;;;;;;8.04;100.00;102434.41;5022919;28;20084;-74
2023/05/18 06:55:25;;;;;;;13.93;4.55;;;;;;;8.11;100.00;102435.41;5026521;28;20045;-73
2023/05/18 06:57:55;;;;;;;13.80;4.40;;;;;;;8.17;100.00;102438.69;5024162;28;20057;-73
2023/05/18 07:00:22;;;;;;;12.27;4.15;;;;;;;8.25;100.00;102434.91;5027168;28;20049;-75
2023/05/18 07:02:49;;;;;;;18.52;4.50;;;;;;;8.32;100.00;102435.91;5026490;28;20563;-75
2023/05/18 07:05:16;;;;;;;15.50;4.90;;;;;;;8.33;100.00;102437.50;5026149;28;20077;-76
2023/05/18 07:07:42;;;;;;;16.10;4.00;;;;;;;8.46;100.00;102440.94;5021639;28;20125;-75
2023/05/18 07:10:09;;;;;;;11.70;3.85;;;;;;;8.52;100.00;102445.88;5024963;28;20054;-75
2023/05/18 07:12:36;;;;;;;11.68;3.20;;;;;;;8.60;100.00;102441.25;5017259;28;20062;-74
2023/05/18 07:15:03;;;;;;;17.83;4.93;;;;;;;8.70;100.00;102440.72;5027085;28;20072;-74
2023/05/18 07:17:29;;;;;;;11.05;3.90;;;;;;;8.78;100.00;102442.50;5019710;28;20085;-75
2023/05/18 07:19:56;;;;;;;8.45;4.00;;;;;;;8.90;100.00;102442.34;5024962;28;20051;-75
2023/05/18 07:22:23;;;;;;;12.75;3.75;;;;;;;9.02;100.00;102453.31;5025544;28;20050;-75
2023/05/18 07:24:49;;;;;;;15.15;4.68;;;;;;;9.03;100.00;102446.56;5023033;28;21078;-75
2023/05/18 07:27:16;;;;;;;17.90;4.80;;;;;;;9.12;100.00;102447.16;5024081;28;20050;-74
2023/05/18 07:29:42;;;;;;;13.73;3.67;;;;;;;9.19;100.00;102447.31;5025280;28;20103;-74
2023/05/18 07:32:09;;;;;;;13.65;4.95;;;;;;;9.23;100.00;102448.16;5019846;28;20456;-74
2023/05/18 07:34:35;;;;;;;18.55;4.43;;;;;;;9.27;100.00;102449.03;5031519;28;20053;-74
2023/05/18 07:37:02;;;;;;;13.73;3.80;;;;;;;9.35;100.00;102446.03;5021347;28;20538;-74
2023/05/18 07:39:29;;;;;;;13.55;3.78;;;;;;;9.40;100.00;102442.16;5019420;28;20413;-75
2023/05/18 07:41:55;;;;;;;20.67;4.97;;;;;;;9.44;100.00;102438.28;5029842;28;20049;-74
2023/05/18 07:44:23;;;;;;;16.98;4.55;;;;;;;9.53;100.00;102447.16;5028170;28;20053;-74
2023/05/18 07:46:49;;;;;;;13.32;3.58;;;;;;;9.57;100.00;102450.81;5029540;28;20069;-76
2023/05/18 07:49:16;;;;;;;16.50;4.10;;;;;;;9.63;100.00;102441.00;5033459;28;20069;-75
2023/05/18 07:51:43;;;;;;;16.70;4.47;;;;;;;9.66;100.00;102445.81;5031087;28;20140;-74
2023/05/18 07:54:12;;;;;;;20.73;5.07;;;;;;;9.70;100.00;102449.44;5028495;28;20085;-75
2023/05/18 07:56:39;;;;;;;12.20;3.60;;;;;;;9.86;100.00;102446.56;5027736;28;20049;-76
2023/05/18 07:59:06;;;;;;;13.18;5.10;;;;;;;10.00;100.00;102444.84;5029112;28;20127;-76
2023/05/18 08:01:33;;;;;;;16.58;4.38;;;;;;;10.06;100.00;102436.19;5028440;28;20180;-72
2023/05/18 08:04:00;;;;;;;20.17;4.65;;;;;;;10.19;100.00;102435.59;5029227;28;20049;-74
2023/05/18 08:06:27;;;;;;;13.52;4.35;;;;;;;10.23;100.00;102441.22;5030590;28;20066;-78
2023/05/18 08:08:55;;;;;;;15.10;4.55;;;;;;;10.28;100.00;102443.69;5030066;28;20099;-74
2023/05/18 08:11:22;;;;;;;16.38;3.78;;;;;;;10.32;100.00;102437.00;5026824;28;20499;-73
2023/05/18 08:13:49;;;;;;;10.05;3.38;;;;;;;10.36;100.00;102440.63;5027714;28;20060;-74
2023/05/18 08:16:16;;;;;;;16.73;4.13;;;;;;;10.46;100.00;102445.53;5022658;28;20058;-72
2023/05/18 08:18:42;;;;;;;21.80;4.40;;;;;;;10.54;100.00;102436.16;5029527;28;20053;-73
2023/05/18 08:21:09;;;;;;;15.07;4.32;;;;;;;10.53;100.00;102439.31;5021280;28;20104;-74
2023/05/18 08:23:36;;;;;;;10.52;4.05;;;;;;;10.55;100.00;102429.41;5019770;28;20168;-72
2023/05/18 08:26:03;;;;;;;14.48;4.18;;;;;;;10.58;100.00;102434.22;5026571;28;20041;-73
2023/05/18 08:28:30;;;;;;;17.00;4.10;;;;;;;10.76;100.00;102426.06;5029507;28;20080;-76
2023/05/18 08:30:57;;;;;;;13.45;4.07;;;;;;;10.84;100.00;102422.22;5029476;28;20073;-75
2023/05/18 08:33:24;;;;;;;15.70;4.47;;;;;;;10.94;100.00;102429.91;5027365;28;20409;-74
2023/05/18 08:35:51;;;;;;;10.35;3.53;;;;;;;11.01;100.00;102425.19;5029240;28;20519;-76
2023/05/18 08:38:18;;;;;;;14.68;4.53;;;;;;;11.11;100.00;102412.63;5028620;28;20060;-74
2023/05/18 08:40:52;;;;;;;18.30;4.05;;;;;;;11.18;100.00;102421.03;5026752;28;20124;-74
2023/05/18 08:43:22;;;;;;;18.85;4.38;;;;;;;11.25;100.00;102421.97;5009729;28;20054;-75
2023/05/18 08:45:57;;;;;;;15.73;3.97;;;;;;;11.29;100.00;102428.38;5024387;28;20054;-73
2023/05/18 08:48:25;;;;;;;14.18;4.15;;;;;;;11.35;100.00;102418.47;5022623;28;20054;-74
2023/05/18 08:50:57;;;;;;;9.45;3.50;;;;;;;11.28;100.00;102426.75;5027171;28;20145;-75
2023/05/18 08:53:24;;;;;;;12.52;3.65;;;;;;;11.38;100.00;102426.06;5025927;28;20515;-76
2023/05/18 08:55:55;;;;;;;13.93;4.30;;;;;;;11.39;100.00;102410.97;5027807;28;20072;-74
2023/05/18 08:58:31;;;;;;;17.77;3.95;;;;;;;11.52;100.00;102420.63;5024311;28;20134;-74
2023/05/18 09:00:57;;;;;;;12.63;3.42;;;;;;;11.58;100.00;102415.53;5026585;28;20050;-76
2023/05/18 09:03:25;;;;;;;13.27;4.15;;;;;;;11.50;100.00;102411.88;5024193;28;20093;-74
2023/05/18 09:05:52;;;;;;;13.43;4.35;;;;;;;11.53;100.00;102411.09;5023210;28;20108;-73
2023/05/18 09:08:18;;;;;;;13.77;3.17;;;;;;;11.58;100.00;102402.38;5023290;28;20761;-75
2023/05/18 09:10:47;;;;;;;11.45;4.50;;;;;;;11.68;100.00;102401.66;5024962;28;21811;-72
2023/05/18 09:13:17;;;;;;;11.40;3.47;;;;;;;11.82;100.00;102406.59;5027849;28;20057;-77
2023/05/18 09:15:44;;;;;;;18.70;4.53;;;;;;;11.96;100.00;102407.47;5012352;28;20111;-75
2023/05/18 09:18:10;;;;;;;17.50;5.22;;;;;;;12.05;100.00;102405.16;5011979;28;20049;-78
2023/05/18 09:20:37;;;;;;;17.58;4.50;;;;;;;11.96;100.00;102398.34;5022532;28;20415;-76
2023/05/18 09:23:05;;;;;;;15.68;4.35;;;;;;;12.10;100.00;102401.22;5023690;28;20049;-75
2023/05/18 09:25:34;;;;;;;14.82;4.68;;;;;;;12.15;100.00;102404.44;5028654;28;20807;-73
2023/05/18 09:28:04;;;;;;;18.65;4.28;;;;;;;12.24;100.00;102390.97;5026927;28;20046;-75
2023/05/18 09:30:46;;;;;;;24.83;6.68;;;;;;;12.35;100.00;102393.78;5024707;28;20165;-74
2023/05/18 09:33:20;;;;;;;15.43;4.90;;;;;;;12.52;100.00;102406.28;5026516;28;20103;-73
2023/05/18 09:35:49;;;;;;;14.57;4.68;;;;;;;12.69;100.00;102394.41;5009063;28;20045;-73
2023/05/18 09:38:20;;;;;;;16.40;4.25;;;;;;;12.69;100.00;102388.84;5024854;28;20128;-76
2023/05/18 09:40:49;;;;;;;16.25;4.15;;;;;;;12.70;100.00;102396.00;5015981;28;20049;-75
2023/05/18 09:43:17;;;;;;;17.58;4.40;;;;;;;12.78;100.00;102398.44;5004833;28;20559;-75
2023/05/18 09:45:46;;;;;;;15.95;4.55;;;;;;;12.80;100.00;102392.47;5003811;28;20053;-73
2023/05/18 09:48:14;;;;;;;12.45;4.47;;;;;;;12.86;100.00;102388.88;5002788;28;20137;-72
2023/05/18 09:50:43;;;;;;;15.52;4.30;;;;;;;12.97;100.00;102388.94;5020527;28;20147;-73
2023/05/18 09:53:11;;;;;;;16.73;4.72;;;;;;;13.15;100.00;102389.78;5005162;28;20057;-77
2023/05/18 09:55:47;;;;;;;15.15;3.60;;;;;;;13.14;100.00;102396.56;5006387;28;20057;-73
2023/05/18 09:58:14;;;;;;;18.63;5.20;;;;;;;13.19;100.00;102391.41;5004422;28;20107;-78
2023/05/18 10:00:43;;;;;;;14.38;4.63;;;;;;;13.26;100.00;102404.59;5007277;28;20056;-78
2023/05/18 10:03:21;;;;;;;17.05;4.28;;;;;;;13.36;100.00;102401.00;5005351;28;20140;-79
2023/05/18 10:05:48;;;;;;;14.45;4.20;;;;;;;13.37;100.00;102391.44;5000989;28;20079;-77
2023/05/18 10:08:15;;;;;;;14.52;4.30;;;;;;;13.50;100.00;102392.69;5001984;28;20577;-76
2023/05/18 10:10:46;;;;;;;14.30;3.67;;;;;;;13.56;100.00;102389.09;5002511;28;20049;-77
2023/05/18 10:13:16;;;;;;;12.60;4.82;;;;;;;13.71;100.00;102398.28;5003830;28;20496;-73
2023/05/18 10:15:48;;;;;;;12.30;4.32;;;;;;;13.79;100.00;102392.31;5011121;28;20517;-73
2023/05/18 10:18:27;;;;;;;15.82;4.18;;;;;;;13.95;100.00;102394.69;5004795;28;20072;-73
2023/05/18 10:21:05;;;;;;;18.65;5.18;;;;;;;14.12;100.00;102400.28;5008017;28;20046;-75
2023/05/18 10:23:34;;;;;;;13.02;4.32;;;;;;;14.19;100.00;102389.06;5004886;28;20064;-72
2023/05/18 10:26:04;;;;;;;15.55;4.20;;;;;;;14.26;100.00;102383.47;5007777;28;20587;-74
2023/05/18 10:28:42;;;;;;;12.30;3.90;;;;;;;14.43;100.00;102388.25;5003356;28;20060;-73
2023/05/18 10:31:09;;;;;;;15.55;4.32;;;;;;;14.57;100.00;102382.59;5005636;28;20045;-74
2023/05/18 10:33:37;;;;;;;11.93;3.97;;;;;;;14.63;100.00;102372.59;5004451;28;20271;-74
2023/05/18 10:36:04;;;;;;;15.57;3.63;;;;;;;14.70;100.00;102371.75;5007464;28;20045;-70
2023/05/18 10:38:35;;;;;;;15.88;4.05;;;;;;;14.80;100.00;102373.69;5021922;28;20054;-74
2023/05/18 10:41:04;;;;;;;18.63;5.30;;;;;;;14.89;98.83;102372.03;5021910;28;20435;-78
2023/05/18 10:43:32;;;;;;;18.23;4.68;;;;;;;15.01;100.00;102365.19;5024144;28;20053;-76
2023/05/18 10:46:00;;;;;;;15.30;4.43;;;;;;;15.18;99.38;102357.88;5023348;28;20069;-75
2023/05/18 10:48:39;;;;;;;14.68;4.25;;;;;;;15.18;97.04;102355.06;5022517;28;20136;-74
2023/05/18 10:51:07;;;;;;;10.13;3.22;;;;;;;15.38;97.97;102347.75;5026131;28;20062;-75
2023/05/18 10:53:35;;;;;;;15.85;4.05;;;;;;;15.35;96.96;102351.38;5023413;28;20799;-75
2023/05/18 10:56:02;;;;;;;17.65;4.07;;;;;;;15.48;97.87;102344.06;5023277;28;20075;-74
2023/05/18 10:58:30;;;;;;;13.90;4.68;;;;;;;15.69;97.08;102343.91;5024704;28;20053;-74
2023/05/18 11:01:00;;;;;;;15.23;4.30;;;;;;;15.83;95.67;102347.38;5021754;28;20053;-73
2023/05/18 11:03:27;;;;;;;13.77;4.32;;;;;;;15.94;94.90;102345.28;5023818;28;20045;-75
2023/05/18 11:06:07;;;;;;;14.20;4.68;;;;;;;15.92;90.53;102344.88;5023833;28;20049;-75
2023/05/18 11:08:43;;;;;;;14.40;4.25;;;;;;;16.00;92.91;102345.63;5023077;28;20179;-75
2023/05/18 11:11:09;;;;;;;13.77;4.10;;;;;;;16.04;91.60;102344.34;5020832;28;20061;-72
2023/05/18 11:13:42;;;;;;;16.88;4.32;;;;;;;16.03;91.03;102344.78;5020082;28;20069;-72
2023/05/18 11:16:09;;;;;;;17.50;3.88;;;;;;;16.11;91.20;102347.13;5025512;28;20061;-75
2023/05/18 11:18:38;;;;;;;12.55;4.15;;;;;;;16.11;92.23;102347.13;5029553;28;20911;-71
2023/05/18 11:21:23;;;;;;;12.40;3.58;;;;;;;16.33;94.07;102348.50;5028516;28;20052;-72